createdAt,value
2022-09-22T00:06:33.226Z,101876.47
2022-09-22T00:09:58.309Z,101876.28
2022-09-22T00:13:22.251Z,101875.78
2022-09-22T00:16:50.220Z,101872.59
2022-09-22T00:20:14.298Z,101869.53
2022-09-22T00:23:42.288Z,101866.53
2022-09-22T00:27:07.250Z,101862.03
2022-09-22T00:30:32.307Z,101877.22
2022-09-22T00:33:56.231Z,101852.94
2022-09-22T00:37:20.344Z,101856.97
2022-09-22T00:40:45.331Z,101852.38
2022-09-22T00:44:42.260Z,101850.16
2022-09-22T00:48:06.279Z,101849.09
2022-09-22T00:51:31.306Z,101849.84
2022-09-22T00:54:55.280Z,101850.59
2022-09-22T00:58:16.901Z,101839.94
2022-09-22T01:01:36.379Z,101837.50
2022-09-22T01:05:00.239Z,101842.00
2022-09-22T01:08:25.329Z,101837.28
2022-09-22T01:11:49.323Z,101832.16
2022-09-22T01:15:58.333Z,101837.22
2022-09-22T01:19:31.316Z,101828.91
2022-09-22T01:23:43.294Z,101828.75
2022-09-22T01:27:16.337Z,101829.22
2022-09-22T01:30:46.346Z,101820.34
2022-09-22T01:34:42.335Z,101819.88
2022-09-22T01:38:12.252Z,101824.84
2022-09-22T01:42:08.355Z,101824.13
2022-09-22T01:45:37.305Z,101811.56
2022-09-22T01:49:04.353Z,101811.56
2022-09-22T01:52:32.381Z,101821.00
2022-09-22T01:55:59.342Z,101822.06
2022-09-22T01:59:18.904Z,101830.81
2022-09-22T02:02:45.519Z,101825.72
2022-09-22T02:06:14.321Z,101817.75
2022-09-22T02:09:40.347Z,101816.00
2022-09-22T02:13:04.323Z,101819.53
2022-09-22T02:16:34.421Z,101825.22
2022-09-22T02:19:58.425Z,101822.75
2022-09-22T02:23:22.433Z,101818.97
2022-09-22T02:26:49.322Z,101819.50
2022-09-22T02:30:24.346Z,101819.66
2022-09-22T02:33:57.333Z,101814.25
2022-09-22T02:37:45.336Z,101810.34
2022-09-22T02:41:40.421Z,101812.34
2022-09-22T02:45:25.390Z,101815.34
2022-09-22T02:48:56.433Z,101819.97
2022-09-22T02:52:26.434Z,101819.03
2022-09-22T02:55:50.328Z,101826.03
2022-09-22T02:59:14.422Z,101814.88
2022-09-22T03:02:32.005Z,101821.31
2022-09-22T03:05:49.409Z,101822.22
2022-09-22T03:09:13.334Z,101812.13
2022-09-22T03:12:37.385Z,101826.34
2022-09-22T03:16:01.406Z,101823.69
2022-09-22T03:19:25.405Z,101824.31
2022-09-22T03:22:50.334Z,101826.88
2022-09-22T03:26:13.386Z,101820.03
2022-09-22T03:29:37.320Z,101825.00
2022-09-22T03:33:01.334Z,101817.38
2022-09-22T03:36:26.348Z,101819.50
2022-09-22T03:39:50.394Z,101823.16
2022-09-22T03:43:16.712Z,101827.16
2022-09-22T03:46:42.341Z,101822.59
2022-09-22T03:50:07.318Z,101816.66
2022-09-22T03:53:33.492Z,101808.53
2022-09-22T03:56:58.373Z,101804.22
2022-09-22T04:00:22.395Z,101808.09
2022-09-22T04:03:40.966Z,101804.06
2022-09-22T04:06:59.133Z,101802.78
2022-09-22T04:10:25.375Z,101800.53
2022-09-22T04:13:49.347Z,101794.53
2022-09-22T04:17:13.368Z,101789.47
2022-09-22T04:20:38.352Z,101786.31
2022-09-22T04:24:01.333Z,101784.28
2022-09-22T04:27:25.438Z,101778.50
2022-09-22T04:30:51.437Z,101768.38
2022-09-22T04:34:15.430Z,101759.56
2022-09-22T04:37:39.348Z,101776.16
2022-09-22T04:41:05.414Z,101769.81
2022-09-22T04:44:32.127Z,101769.47
2022-09-22T04:48:03.408Z,101760.31
2022-09-22T04:51:27.387Z,101746.28
2022-09-22T04:54:52.438Z,101747.22
2022-09-22T04:58:15.365Z,101742.66
2022-09-22T05:01:38.450Z,101746.88
2022-09-22T05:04:55.965Z,101743.44
2022-09-22T05:08:13.393Z,101727.09
2022-09-22T05:11:38.385Z,101719.56
2022-09-22T05:15:02.379Z,101721.22
2022-09-22T05:18:27.418Z,101729.09
2022-09-22T05:21:52.401Z,101717.94
2022-09-22T05:25:19.397Z,101720.84
2022-09-22T05:28:43.366Z,101707.31
2022-09-22T05:32:07.428Z,101722.75
2022-09-22T05:35:36.879Z,101725.13
2022-09-22T05:39:01.347Z,101727.13
2022-09-22T05:42:26.444Z,101724.31
2022-09-22T05:45:50.436Z,101724.28
2022-09-22T05:49:14.397Z,101728.88
2022-09-22T05:52:38.349Z,101728.28
2022-09-22T05:56:05.442Z,101728.41
2022-09-22T05:59:29.358Z,101722.75
2022-09-22T06:02:53.476Z,101724.63
2022-09-22T06:06:10.960Z,101715.59
2022-09-22T06:09:29.400Z,101714.03
2022-09-22T06:12:53.419Z,101717.81
2022-09-22T06:16:18.453Z,101718.53
2022-09-22T06:19:42.388Z,101720.63
2022-09-22T06:23:08.413Z,101719.69
2022-09-22T06:26:32.392Z,101732.50
2022-09-22T06:29:57.411Z,101732.84
2022-09-22T06:33:22.429Z,101738.84
2022-09-22T06:36:46.412Z,101728.78
2022-09-22T06:40:11.884Z,101732.25
2022-09-22T06:43:45.421Z,101730.97
2022-09-22T06:47:13.374Z,101734.09
2022-09-22T06:50:40.416Z,101729.31
2022-09-22T06:54:04.428Z,101732.63
2022-09-22T06:57:29.456Z,101736.13
2022-09-22T07:00:53.458Z,101743.19
2022-09-22T07:04:17.475Z,101748.50
2022-09-22T07:07:47.722Z,101746.72
2022-09-22T07:11:07.458Z,101740.13
2022-09-22T07:14:33.469Z,101736.44
2022-09-22T07:17:58.391Z,101745.09
2022-09-22T07:21:35.472Z,101748.56
2022-09-22T07:25:01.463Z,101743.50
2022-09-22T07:28:25.482Z,101748.91
2022-09-22T07:31:49.475Z,101756.06
2022-09-22T07:35:14.571Z,101752.41
2022-09-22T07:38:41.458Z,101759.44
2022-09-22T07:42:05.472Z,101754.88
2022-09-22T07:45:31.457Z,101752.38
2022-09-22T07:48:55.437Z,101767.09
2022-09-22T07:52:19.579Z,101772.16
2022-09-22T07:55:46.397Z,101769.66
2022-09-22T07:59:13.489Z,101767.53
2022-09-22T08:02:44.454Z,101785.41
2022-09-22T08:06:23.892Z,101776.28
2022-09-22T08:09:43.034Z,101778.41
2022-09-22T08:13:06.455Z,101774.91
2022-09-22T08:16:36.517Z,101774.06
2022-09-22T08:20:00.502Z,101783.38
2022-09-22T08:23:24.469Z,101791.56
2022-09-22T08:26:48.515Z,101789.06
2022-09-22T08:30:13.479Z,101787.06
2022-09-22T08:33:37.470Z,101780.13
2022-09-22T08:37:01.528Z,101788.00
2022-09-22T08:40:32.516Z,101789.28
2022-09-22T08:44:05.516Z,101786.38
2022-09-22T08:47:55.457Z,101782.53
2022-09-22T08:51:58.441Z,101784.28
2022-09-22T08:55:38.487Z,101785.06
2022-09-22T08:59:15.445Z,101782.34
2022-09-22T09:03:07.600Z,101775.38
2022-09-22T09:07:03.469Z,101782.63
2022-09-22T09:10:43.460Z,101776.50
2022-09-22T09:14:20.503Z,101771.25
2022-09-22T09:17:47.450Z,101766.97
2022-09-22T09:21:12.533Z,101767.50
2022-09-22T09:28:51.485Z,101764.44
2022-09-22T09:32:18.496Z,101763.38
2022-09-22T09:36:03.563Z,101754.63
2022-09-22T09:39:46.442Z,101745.91
2022-09-22T09:43:16.484Z,101748.84
2022-09-22T09:46:53.443Z,101743.47
2022-09-22T09:50:19.491Z,101735.56
2022-09-22T09:53:55.455Z,101736.22
2022-09-22T09:57:27.870Z,101734.75
2022-09-22T10:01:13.507Z,101730.66
2022-09-22T10:04:52.479Z,101722.47
2022-09-22T10:08:36.486Z,101719.88
2022-09-22T10:12:16.535Z,101717.41
2022-09-22T10:15:41.553Z,101712.69
2022-09-22T10:19:21.449Z,101706.91
2022-09-22T10:22:45.504Z,101696.75
2022-09-22T10:26:36.497Z,101683.50
2022-09-22T10:30:04.498Z,101679.38
2022-09-22T10:33:41.709Z,101672.41
2022-09-22T10:37:07.549Z,101668.75
2022-09-22T10:40:33.603Z,101662.88
2022-09-22T10:44:27.363Z,101652.09
2022-09-22T10:48:33.493Z,101654.88
2022-09-22T10:52:09.549Z,101649.03
2022-09-22T10:55:44.549Z,101645.91
2022-09-22T10:59:17.507Z,101635.53
2022-09-22T11:02:54.515Z,101631.63
2022-09-22T11:06:42.517Z,101630.59
2022-09-22T11:10:45.511Z,101617.72
2022-09-22T11:14:23.860Z,101618.16
2022-09-22T11:18:08.508Z,101614.84
2022-09-22T11:21:54.476Z,101594.72
2022-09-22T11:25:50.579Z,101590.75
2022-09-22T11:29:28.483Z,101579.94
2022-09-22T11:33:02.573Z,101577.63
2022-09-22T11:37:01.535Z,101575.75
2022-09-22T11:40:37.812Z,101565.56
2022-09-22T11:44:28.530Z,101551.59
2022-09-22T11:48:04.525Z,101545.63
2022-09-22T11:51:44.505Z,101545.63
2022-09-22T11:55:31.568Z,101529.91
2022-09-22T11:58:55.503Z,101530.28
2022-09-22T12:02:44.598Z,101521.72
2022-09-22T12:06:18.530Z,101525.00
2022-09-22T12:09:48.525Z,101516.78
2022-09-22T12:13:07.073Z,101516.16
2022-09-22T12:16:27.519Z,101524.88
2022-09-22T12:20:20.659Z,101510.88
2022-09-22T12:23:52.525Z,101508.63
2022-09-22T12:27:25.552Z,101519.63
2022-09-22T12:30:49.688Z,101504.06
2022-09-22T12:34:13.556Z,101496.03
2022-09-22T12:37:43.568Z,101487.72
2022-09-22T12:41:11.518Z,101496.66
2022-09-22T12:44:37.549Z,101485.41
2022-09-22T12:48:09.781Z,101474.25
2022-09-22T12:51:41.556Z,101465.31
2022-09-22T12:55:05.554Z,101462.03
2022-09-22T12:58:38.717Z,101451.25
2022-09-22T13:02:27.553Z,101449.16
2022-09-22T13:05:52.594Z,101445.78
2022-09-22T13:09:19.549Z,101447.66
2022-09-22T13:12:43.566Z,101437.69
2022-09-22T13:16:11.640Z,101439.69
2022-09-22T13:19:35.553Z,101437.50
2022-09-22T13:22:59.628Z,101423.03
2022-09-22T13:26:28.604Z,101413.66
2022-09-22T13:29:52.593Z,101414.84
2022-09-22T13:33:17.562Z,101406.25
2022-09-22T13:36:42.567Z,101399.56
2022-09-22T13:40:09.589Z,101394.19
2022-09-22T13:43:45.613Z,101383.97
2022-09-22T13:47:12.560Z,101376.22
2022-09-22T13:50:37.612Z,101361.56
2022-09-22T13:54:05.566Z,101362.63
2022-09-22T13:57:39.588Z,101360.84
2022-09-22T14:01:13.414Z,101361.81
2022-09-22T14:04:42.580Z,101343.72
2022-09-22T14:08:12.009Z,101337.88
2022-09-22T14:11:43.601Z,101331.19
2022-09-22T14:15:07.591Z,101329.47
2022-09-22T14:18:36.592Z,101331.56
2022-09-22T14:22:10.629Z,101333.19
2022-09-22T14:25:35.550Z,101321.94
2022-09-22T14:28:59.591Z,101309.06
2022-09-22T14:32:35.595Z,101314.34
2022-09-22T14:36:00.593Z,101306.56
2022-09-22T14:39:32.536Z,101306.56
2022-09-22T14:42:57.636Z,101305.56
2022-09-22T14:46:44.595Z,101296.63
2022-09-22T14:50:28.583Z,101299.44
2022-09-22T14:54:03.570Z,101285.84
2022-09-22T14:57:30.583Z,101287.81
2022-09-22T15:01:23.609Z,101288.66
2022-09-22T15:04:47.632Z,101290.16
2022-09-22T15:08:13.371Z,101280.22
2022-09-22T15:12:04.396Z,101289.72
2022-09-22T15:15:32.074Z,101293.13
2022-09-22T15:18:49.404Z,101287.03
2022-09-22T15:22:15.381Z,101289.94
2022-09-22T15:25:39.443Z,101285.84
2022-09-22T15:29:06.429Z,101286.66
2022-09-22T15:32:31.409Z,101281.03
2022-09-22T15:35:55.439Z,101291.22
2022-09-22T15:39:35.430Z,101287.47
2022-09-22T15:43:12.720Z,101287.59
2022-09-22T15:46:51.675Z,101293.94
2022-09-22T15:50:15.592Z,101297.81
2022-09-22T15:53:39.746Z,101287.81
2022-09-22T15:57:07.626Z,101284.78
2022-09-22T16:00:36.724Z,101283.72
2022-09-22T16:04:00.670Z,101283.63
2022-09-22T16:07:26.760Z,101281.38
2022-09-22T16:10:52.638Z,101283.00
2022-09-22T16:14:19.678Z,101296.63
2022-09-22T16:17:39.649Z,101287.47
2022-09-22T16:20:59.690Z,101286.41
2022-09-22T16:24:26.611Z,101290.78
2022-09-22T16:27:49.651Z,101294.41
2022-09-22T16:31:17.682Z,101294.50
2022-09-22T16:34:42.685Z,101307.53
2022-09-22T16:38:07.637Z,101305.44
2022-09-22T16:41:39.698Z,101313.63
2022-09-22T16:45:03.627Z,101313.88
2022-09-22T16:48:27.689Z,101306.47
2022-09-22T16:51:56.702Z,101311.03
2022-09-22T16:55:21.668Z,101302.03
2022-09-22T16:58:44.660Z,101313.38
2022-09-22T17:02:08.687Z,101318.47
2022-09-22T17:05:31.662Z,101313.66
2022-09-22T17:08:56.661Z,101320.31
2022-09-22T17:12:19.709Z,101322.88
2022-09-22T17:15:44.718Z,101319.47
2022-09-22T17:19:06.245Z,101322.03
2022-09-22T17:22:24.708Z,101323.00
2022-09-22T17:25:48.687Z,101321.94
2022-09-22T17:29:12.709Z,101320.41
2022-09-22T17:32:37.675Z,101328.72
2022-09-22T17:36:01.671Z,101327.22
2022-09-22T17:39:24.661Z,101327.22
2022-09-22T17:42:48.634Z,101339.28
2022-09-22T17:46:12.741Z,101340.25
2022-09-22T17:49:55.652Z,101348.56
2022-09-22T17:53:30.667Z,101356.03
2022-09-22T17:56:53.652Z,101357.59
2022-09-22T18:00:21.758Z,101354.31
2022-09-22T18:03:45.640Z,101362.19
2022-09-22T18:07:13.707Z,101367.94
2022-09-22T18:10:41.650Z,101366.75
2022-09-22T18:14:05.780Z,101366.19
2022-09-22T18:17:32.686Z,101370.16
2022-09-22T18:20:57.668Z,101377.00
2022-09-22T18:24:27.686Z,101384.97
2022-09-22T18:27:51.649Z,101396.69
2022-09-22T18:31:15.734Z,101395.16
2022-09-22T18:34:39.708Z,101398.91
2022-09-22T18:38:02.660Z,101397.63
2022-09-22T18:41:26.711Z,101403.59
2022-09-22T18:44:50.689Z,101398.59
2022-09-22T18:48:14.707Z,101412.09
2022-09-22T18:51:38.657Z,101400.38
2022-09-22T18:55:04.739Z,101409.63
2022-09-22T18:58:28.697Z,101419.03
2022-09-22T19:01:52.751Z,101414.81
2022-09-22T19:05:16.689Z,101407.44
2022-09-22T19:08:41.700Z,101412.97
2022-09-22T19:12:06.678Z,101410.19
2022-09-22T19:15:33.762Z,101416.88
2022-09-22T19:18:57.721Z,101421.94
2022-09-22T19:22:17.317Z,101417.91
2022-09-22T19:25:35.693Z,101416.88
2022-09-22T19:29:00.745Z,101423.59
2022-09-22T19:32:24.668Z,101428.09
2022-09-22T19:35:47.706Z,101427.31
2022-09-22T19:39:12.714Z,101429.31
2022-09-22T19:42:40.054Z,101436.59
2022-09-22T19:46:04.710Z,101430.84
2022-09-22T19:49:29.704Z,101439.78
2022-09-22T19:52:53.739Z,101436.22
2022-09-22T19:56:17.718Z,101431.06
2022-09-22T19:59:41.765Z,101427.41
2022-09-22T20:03:08.739Z,101439.97
2022-09-22T20:06:33.772Z,101425.63
2022-09-22T20:09:57.677Z,101431.94
2022-09-22T20:13:39.767Z,101428.16
2022-09-22T20:17:12.727Z,101425.78
2022-09-22T20:20:41.763Z,101425.09
2022-09-22T20:24:05.679Z,101438.94
2022-09-22T20:27:29.894Z,101437.69
2022-09-22T20:30:53.746Z,101428.94
2022-09-22T20:34:18.741Z,101438.09
2022-09-22T20:37:43.733Z,101436.72
2022-09-22T20:41:06.861Z,101437.59
2022-09-22T20:44:30.734Z,101431.75
2022-09-22T20:47:54.728Z,101424.47
2022-09-22T20:51:11.705Z,101422.44
2022-09-22T20:54:34.773Z,101422.28
2022-09-22T20:57:51.770Z,101426.91
2022-09-22T21:01:16.797Z,101425.75
2022-09-22T21:04:40.681Z,101425.75
2022-09-22T21:08:24.778Z,101413.03
2022-09-22T21:11:48.760Z,101413.94
2022-09-22T21:15:12.771Z,101411.25
2022-09-22T21:18:35.786Z,101417.72
2022-09-22T21:21:53.343Z,101415.25
2022-09-22T21:25:10.821Z,101418.91
2022-09-22T21:28:34.761Z,101414.53
2022-09-22T21:31:58.758Z,101408.38
2022-09-22T21:35:24.754Z,101407.72
2022-09-22T21:38:48.752Z,101415.03
2022-09-22T21:42:13.784Z,101415.59
2022-09-22T21:45:37.717Z,101410.75
2022-09-22T21:49:02.806Z,101412.25
2022-09-22T21:52:27.715Z,101418.56
2022-09-22T21:55:51.802Z,101408.16
2022-09-22T21:59:17.779Z,101410.31
2022-09-22T22:03:01.749Z,101408.16
2022-09-22T22:06:26.803Z,101403.56
2022-09-22T22:09:50.767Z,101415.38
2022-09-22T22:13:14.765Z,101408.38
2022-09-22T22:16:40.771Z,101415.19
2022-09-22T22:20:05.774Z,101410.91
2022-09-22T22:23:29.806Z,101407.09
2022-09-22T22:26:47.766Z,101410.63
2022-09-22T22:30:11.760Z,101405.31
2022-09-22T22:33:36.759Z,101395.75
2022-09-22T22:37:00.794Z,101395.94
2022-09-22T22:40:25.860Z,101388.03
2022-09-22T22:43:49.741Z,101382.69
2022-09-22T22:47:13.807Z,101377.69
2022-09-22T22:50:36.795Z,101378.56
2022-09-22T22:54:03.759Z,101370.34
2022-09-22T22:57:27.781Z,101376.03
2022-09-22T23:00:51.737Z,101362.00
2022-09-22T23:04:17.808Z,101361.09
2022-09-22T23:07:41.792Z,101349.06
2022-09-22T23:11:04.792Z,101358.25
2022-09-22T23:14:28.799Z,101345.97
2022-09-22T23:17:52.788Z,101345.66
2022-09-22T23:21:17.822Z,101350.88
2022-09-22T23:24:41.794Z,101344.91
2022-09-22T23:28:09.796Z,101344.84
2022-09-22T23:31:34.811Z,101337.19
2022-09-22T23:34:58.817Z,101333.59
2022-09-22T23:38:22.792Z,101330.69
2022-09-22T23:41:50.781Z,101341.09
2022-09-22T23:45:15.799Z,101332.03
2022-09-22T23:48:39.770Z,101331.53
2022-09-22T23:52:03.844Z,101338.88
2022-09-22T23:55:26.828Z,101328.47
2022-09-22T23:58:53.814Z,101331.81
